createdAt,value
2023-05-14T00:00:53.363Z,87.1053
2023-05-14T00:01:54.363Z,86.8655
2023-05-14T00:02:55.547Z,87.0517
2023-05-14T00:03:56.522Z,86.9094
2023-05-14T00:04:57.548Z,86.8001
2023-05-14T00:05:58.514Z,86.8613
2023-05-14T00:06:59.546Z,87.0226
2023-05-14T00:08:00.577Z,87.1605
2023-05-14T00:09:01.601Z,87.2518
2023-05-14T00:10:02.710Z,87.4152
2023-05-14T00:11:03.711Z,87.2945
2023-05-14T00:12:04.722Z,87.1294
2023-05-14T00:13:05.755Z,87.1317
2023-05-14T00:14:06.804Z,87.1632
2023-05-14T00:15:07.883Z,87.2966
2023-05-14T00:16:08.982Z,87.2600
2023-05-14T00:17:09.904Z,86.9562
2023-05-14T00:18:10.981Z,86.9919
2023-05-14T00:19:12.044Z,87.1175
2023-05-14T00:20:13.068Z,87.2080
2023-05-14T00:21:14.073Z,87.4827
2023-05-14T00:22:15.101Z,87.3065
2023-05-14T00:23:16.121Z,87.2339
2023-05-14T00:24:17.159Z,87.2531
2023-05-14T00:25:18.208Z,87.3598
2023-05-14T00:26:19.272Z,87.3652
2023-05-14T00:27:20.248Z,87.4664
2023-05-14T00:28:21.273Z,87.7434
2023-05-14T00:29:22.315Z,87.8372
2023-05-14T00:30:23.592Z,87.9024
2023-05-14T00:31:24.457Z,87.7670
2023-05-14T00:32:25.583Z,87.7336
2023-05-14T00:33:26.500Z,87.9059
2023-05-14T00:34:27.547Z,87.6184
2023-05-14T00:35:28.599Z,87.7209
2023-05-14T00:36:29.661Z,87.7488
2023-05-14T00:37:30.638Z,87.8495
2023-05-14T00:38:31.677Z,87.9657
2023-05-14T00:39:32.711Z,88.0254
2023-05-14T00:40:33.782Z,88.1749
2023-05-14T00:41:34.883Z,88.1498
2023-05-14T00:42:35.895Z,88.0189
2023-05-14T00:43:36.905Z,87.9602
2023-05-14T00:44:37.955Z,88.0493
2023-05-14T00:45:38.934Z,88.0705
2023-05-14T00:46:40.066Z,88.0704
2023-05-14T00:47:41.141Z,88.2798
2023-05-14T00:48:42.079Z,88.7360
2023-05-14T00:49:43.077Z,88.7969
2023-05-14T00:50:44.156Z,88.5408
2023-05-14T00:51:45.186Z,88.7547
2023-05-14T00:52:46.228Z,88.8474
2023-05-14T00:53:47.221Z,88.7854
2023-05-14T00:54:48.316Z,88.6516
2023-05-14T00:55:49.321Z,88.7777
2023-05-14T00:56:50.363Z,88.8912
2023-05-14T00:57:51.472Z,88.6438
2023-05-14T00:58:52.425Z,88.6917
2023-05-14T00:59:53.458Z,88.8495
2023-05-14T01:00:54.586Z,89.1242
2023-05-14T01:01:55.563Z,89.1549
2023-05-14T01:02:56.673Z,89.1191
2023-05-14T01:03:57.872Z,88.9947
2023-05-14T01:04:58.704Z,89.1119
2023-05-14T01:05:59.680Z,88.9744
2023-05-14T01:07:00.767Z,88.9632
2023-05-14T01:08:01.821Z,89.1171
2023-05-14T01:09:02.855Z,88.9764
2023-05-14T01:10:03.847Z,88.8587
2023-05-14T01:11:04.894Z,88.8226
2023-05-14T01:12:05.931Z,88.8480
2023-05-14T01:13:07.021Z,88.7533
2023-05-14T01:14:08.039Z,88.7381
2023-05-14T01:15:09.167Z,88.7393
2023-05-14T01:16:10.172Z,88.7784
2023-05-14T01:17:11.202Z,88.8331
2023-05-14T01:18:12.278Z,88.7993
2023-05-14T01:19:13.390Z,88.9696
2023-05-14T01:20:14.279Z,88.9764
2023-05-14T01:21:15.339Z,88.7576
2023-05-14T01:22:16.361Z,88.4793
2023-05-14T01:23:17.435Z,88.5698
2023-05-14T01:24:18.474Z,88.6307
2023-05-14T01:25:19.554Z,88.8340
2023-05-14T01:26:20.554Z,88.8123
2023-05-14T01:27:21.671Z,88.6312
2023-05-14T01:28:22.753Z,88.5184
2023-05-14T01:29:23.789Z,88.5983
2023-05-14T01:30:25.024Z,88.6397
2023-05-14T01:31:25.800Z,88.8224
2023-05-14T01:32:26.919Z,88.7398
2023-05-14T01:33:27.878Z,88.5814
2023-05-14T01:34:29.031Z,88.5608
2023-05-14T01:35:30.036Z,88.6035
2023-05-14T01:36:31.068Z,88.6546
2023-05-14T01:37:32.013Z,88.7550
2023-05-14T01:38:33.054Z,88.8642
2023-05-14T01:39:34.150Z,88.7185
2023-05-14T01:40:35.256Z,88.5482
2023-05-14T01:41:36.173Z,88.6648
2023-05-14T01:42:37.228Z,88.6333
2023-05-14T01:43:38.260Z,88.5269
2023-05-14T01:44:39.321Z,88.9262
2023-05-14T01:45:40.368Z,88.8817
2023-05-14T01:46:41.381Z,88.8289
2023-05-14T01:47:42.415Z,88.5272
2023-05-14T01:48:43.467Z,88.8509
2023-05-14T01:49:44.497Z,88.8226
2023-05-14T01:50:45.586Z,88.7748
2023-05-14T01:51:46.545Z,88.9364
2023-05-14T01:52:47.651Z,88.5729
2023-05-14T01:53:48.626Z,88.7194
2023-05-14T01:54:49.746Z,88.7355
2023-05-14T01:55:50.773Z,88.8631
2023-05-14T01:56:51.732Z,88.6839
2023-05-14T01:57:52.792Z,88.6116
2023-05-14T01:58:53.852Z,88.5808
2023-05-14T01:59:54.946Z,88.8663
2023-05-14T02:00:55.932Z,89.0629
2023-05-14T02:01:57.128Z,89.0987
2023-05-14T02:02:58.023Z,89.1742
2023-05-14T02:03:59.098Z,89.0995
2023-05-14T02:05:00.109Z,89.2351
2023-05-14T02:06:01.169Z,89.1541
2023-05-14T02:07:02.091Z,89.1744
2023-05-14T02:08:03.180Z,89.2691
2023-05-14T02:09:04.276Z,89.0636
2023-05-14T02:10:05.304Z,88.7508
2023-05-14T02:11:06.384Z,88.5286
2023-05-14T02:12:07.388Z,88.7122
2023-05-14T02:13:08.335Z,88.6235
2023-05-14T02:14:09.436Z,88.6912
2023-05-14T02:15:10.496Z,88.9313
2023-05-14T02:16:11.534Z,89.0262
2023-05-14T02:17:12.488Z,88.8428
2023-05-14T02:18:13.599Z,88.5894
2023-05-14T02:19:14.666Z,88.9755
2023-05-14T02:20:15.807Z,88.8400
2023-05-14T02:21:16.695Z,88.5415
2023-05-14T02:22:17.708Z,88.6618
2023-05-14T02:23:20.594Z,88.5620
2023-05-14T02:24:19.800Z,88.6202
2023-05-14T02:25:20.881Z,88.9393
2023-05-14T02:26:21.946Z,88.5790
2023-05-14T02:27:22.907Z,88.8451
2023-05-14T02:28:23.989Z,88.6017
2023-05-14T02:29:24.991Z,88.5365
2023-05-14T02:30:26.126Z,88.6956
2023-05-14T02:31:27.173Z,88.7762
2023-05-14T02:32:28.348Z,89.0414
2023-05-14T02:33:29.203Z,89.2345
2023-05-14T02:34:30.170Z,89.3892
2023-05-14T02:35:31.280Z,89.4390
2023-05-14T02:36:32.291Z,89.3815
2023-05-14T02:37:33.253Z,89.0738
2023-05-14T02:38:34.352Z,89.1706
2023-05-14T02:39:35.348Z,89.4135
2023-05-14T02:40:36.469Z,89.3180
2023-05-14T02:41:37.517Z,89.3672
2023-05-14T02:42:38.520Z,89.0178
2023-05-14T02:43:39.496Z,88.6418
2023-05-14T02:44:40.655Z,88.5963
2023-05-14T02:45:41.621Z,88.8090
2023-05-14T02:46:42.745Z,88.8176
2023-05-14T02:47:43.750Z,89.0495
2023-05-14T02:48:44.773Z,89.1749
2023-05-14T02:49:45.739Z,89.1524
2023-05-14T02:50:46.834Z,88.9610
2023-05-14T02:51:47.853Z,88.9104
2023-05-14T02:52:48.860Z,89.1494
2023-05-14T02:53:49.911Z,89.5101
2023-05-14T02:54:50.919Z,89.0159
2023-05-14T02:55:52.059Z,88.8675
2023-05-14T02:56:53.062Z,89.1059
2023-05-14T02:57:54.153Z,89.0744
2023-05-14T02:58:55.109Z,88.9230
2023-05-14T02:59:56.114Z,88.8658
2023-05-14T03:00:57.224Z,88.8942
2023-05-14T03:01:58.341Z,88.8117
2023-05-14T03:02:59.259Z,89.0096
2023-05-14T03:04:00.305Z,88.8731
2023-05-14T03:05:01.295Z,88.7790
2023-05-14T03:06:02.435Z,88.9657
2023-05-14T03:07:03.436Z,88.9249
2023-05-14T03:08:04.416Z,89.2329
2023-05-14T03:09:05.477Z,88.8738
2023-05-14T03:10:06.470Z,88.6170
2023-05-14T03:11:07.546Z,88.4852
2023-05-14T03:12:08.728Z,88.6039
2023-05-14T03:13:09.614Z,88.8340
2023-05-14T03:14:10.634Z,88.7766
2023-05-14T03:15:11.696Z,89.0049
2023-05-14T03:16:12.755Z,89.2296
2023-05-14T03:17:13.813Z,89.3981
2023-05-14T03:18:14.790Z,89.2426
2023-05-14T03:19:15.885Z,89.2990
2023-05-14T03:20:16.839Z,89.3690
2023-05-14T03:21:17.987Z,89.7030
2023-05-14T03:22:18.976Z,89.6112
2023-05-14T03:23:20.017Z,89.8721
2023-05-14T03:24:20.971Z,89.8548
2023-05-14T03:25:22.030Z,89.8875
2023-05-14T03:26:23.108Z,89.7947
2023-05-14T03:27:24.149Z,89.9342
2023-05-14T03:28:25.134Z,89.8941
2023-05-14T03:29:26.147Z,89.7504
2023-05-14T03:30:27.285Z,90.0291
2023-05-14T03:31:28.281Z,89.8835
2023-05-14T03:32:29.360Z,90.1483
2023-05-14T03:33:30.310Z,89.9425
2023-05-14T03:34:31.355Z,89.8431
2023-05-14T03:35:32.378Z,90.1965
2023-05-14T03:36:33.496Z,90.1256
2023-05-14T03:37:34.506Z,90.3017
2023-05-14T03:38:35.592Z,90.6049
2023-05-14T03:39:36.548Z,90.7270
2023-05-14T03:40:37.669Z,90.7939
2023-05-14T03:41:38.648Z,90.7252
2023-05-14T03:42:39.793Z,90.7591
2023-05-14T03:43:40.720Z,90.7615
2023-05-14T03:44:41.713Z,90.8766
2023-05-14T03:45:42.828Z,90.9101
2023-05-14T03:46:43.843Z,90.8580
2023-05-14T03:47:44.869Z,90.8515
2023-05-14T03:48:45.915Z,90.7462
2023-05-14T03:49:46.894Z,90.8246
2023-05-14T03:50:48.027Z,90.8134
2023-05-14T03:51:49.019Z,90.7365
2023-05-14T03:52:50.075Z,90.8071
2023-05-14T03:53:51.055Z,90.6977
2023-05-14T03:54:52.093Z,90.6203
2023-05-14T03:55:53.112Z,90.7695
2023-05-14T03:56:54.276Z,90.8310
2023-05-14T03:57:55.273Z,90.5440
2023-05-14T03:58:56.266Z,90.2913
2023-05-14T03:59:57.268Z,90.0148
2023-05-14T04:00:58.349Z,89.7782
2023-05-14T04:01:59.393Z,89.5300
2023-05-14T04:03:00.607Z,89.5838
2023-05-14T04:04:01.616Z,89.6105
2023-05-14T04:05:02.454Z,89.6564
2023-05-14T04:06:03.578Z,89.4179
2023-05-14T04:07:04.582Z,89.2693
2023-05-14T04:08:05.647Z,89.2504
2023-05-14T04:09:06.598Z,89.3065
2023-05-14T04:10:07.686Z,89.4592
2023-05-14T04:11:08.710Z,89.4889
2023-05-14T04:12:09.780Z,89.2814
2023-05-14T04:13:10.909Z,89.1681
2023-05-14T04:14:11.807Z,89.0606
2023-05-14T04:15:12.924Z,89.1485
2023-05-14T04:16:14.024Z,89.0831
2023-05-14T04:17:14.979Z,88.8099
2023-05-14T04:18:16.073Z,88.9884
2023-05-14T04:19:17.151Z,89.2263
2023-05-14T04:20:18.021Z,89.3197
2023-05-14T04:21:19.057Z,89.4329
2023-05-14T04:22:20.156Z,89.3422
2023-05-14T04:23:21.216Z,89.0715
2023-05-14T04:24:22.206Z,89.1649
2023-05-14T04:25:23.225Z,88.8093
2023-05-14T04:26:24.349Z,88.7741
2023-05-14T04:27:25.351Z,88.9156
2023-05-14T04:28:26.391Z,88.9783
2023-05-14T04:29:27.422Z,89.1479
2023-05-14T04:30:28.434Z,89.2458
2023-05-14T04:31:29.591Z,89.1554
2023-05-14T04:32:30.642Z,88.6721
2023-05-14T04:33:31.587Z,88.3071
2023-05-14T04:34:32.665Z,88.1287
2023-05-14T04:35:33.710Z,87.9494
2023-05-14T04:36:34.664Z,88.2792
2023-05-14T04:37:35.786Z,88.3696
2023-05-14T04:38:36.836Z,88.2133
2023-05-14T04:39:37.784Z,88.0746
2023-05-14T04:40:38.824Z,87.9127
2023-05-14T04:41:39.872Z,87.7923
2023-05-14T04:42:40.981Z,87.9687
2023-05-14T04:43:41.985Z,88.1479
2023-05-14T04:44:42.986Z,88.4530
2023-05-14T04:45:44.068Z,88.0321
2023-05-14T04:46:45.076Z,87.4066
2023-05-14T04:47:46.225Z,87.3892
2023-05-14T04:48:47.229Z,87.4192
2023-05-14T04:49:48.141Z,87.3215
2023-05-14T04:50:49.188Z,87.2820
2023-05-14T04:51:50.228Z,86.9749
2023-05-14T04:52:51.352Z,86.6966
2023-05-14T04:53:52.382Z,86.3463
2023-05-14T04:54:53.358Z,86.4136
2023-05-14T04:55:54.383Z,86.6042
2023-05-14T04:56:55.421Z,86.4782
2023-05-14T04:57:56.502Z,86.8803
2023-05-14T04:58:57.533Z,86.6127
2023-05-14T04:59:58.548Z,86.0265
2023-05-14T05:00:59.714Z,86.1063
2023-05-14T05:02:00.629Z,86.2333
2023-05-14T05:03:01.800Z,86.1661
2023-05-14T05:04:02.764Z,86.5158
2023-05-14T05:05:03.742Z,86.3517
2023-05-14T05:06:04.800Z,86.0730
2023-05-14T05:07:05.869Z,86.2207
2023-05-14T05:08:06.947Z,86.5067
2023-05-14T05:09:07.939Z,86.4316
2023-05-14T05:10:08.995Z,86.4204
2023-05-14T05:11:10.014Z,86.3185
2023-05-14T05:12:11.024Z,86.2309
2023-05-14T05:13:12.090Z,86.1202
2023-05-14T05:14:13.149Z,86.0078
2023-05-14T05:15:14.215Z,85.8049
2023-05-14T05:16:15.325Z,85.6695
2023-05-14T05:17:16.289Z,85.7172
2023-05-14T05:18:17.360Z,86.3150
2023-05-14T05:19:19.730Z,85.8333
2023-05-14T05:20:19.392Z,85.6357
2023-05-14T05:21:20.421Z,85.6104
2023-05-14T05:22:21.510Z,85.8158
2023-05-14T05:23:22.552Z,85.8361
2023-05-14T05:24:23.590Z,85.9214
2023-05-14T05:25:24.552Z,85.4665
2023-05-14T05:26:25.617Z,85.4350
2023-05-14T05:27:26.658Z,85.3664
2023-05-14T05:28:27.757Z,85.4205
2023-05-14T05:29:28.841Z,85.2634
2023-05-14T05:30:29.793Z,85.6117
2023-05-14T05:31:30.854Z,85.5949
2023-05-14T05:32:31.936Z,85.5846
2023-05-14T05:33:32.973Z,85.4978
2023-05-14T05:34:34.036Z,85.4226
2023-05-14T05:35:34.952Z,85.3126
2023-05-14T05:36:35.997Z,85.1126
2023-05-14T05:37:37.038Z,85.3073
2023-05-14T05:38:38.161Z,84.9420
2023-05-14T05:39:39.179Z,85.1952
2023-05-14T05:40:40.183Z,85.3381
2023-05-14T05:41:41.205Z,85.2464
2023-05-14T05:42:42.233Z,85.3887
2023-05-14T05:43:43.297Z,85.6084
2023-05-14T05:44:44.386Z,85.6089
2023-05-14T05:45:45.352Z,84.9922
2023-05-14T05:46:46.498Z,84.9406
2023-05-14T05:47:47.531Z,85.0517
2023-05-14T05:48:48.492Z,85.3596
2023-05-14T05:49:49.580Z,86.0456
2023-05-14T05:50:50.547Z,85.8839
2023-05-14T05:51:51.653Z,85.4162
2023-05-14T05:52:52.638Z,85.3511
2023-05-14T05:53:53.704Z,85.1356
2023-05-14T05:54:54.730Z,84.6005
2023-05-14T05:55:55.746Z,84.2183
2023-05-14T05:56:56.870Z,84.2871
2023-05-14T05:57:57.847Z,84.0508
2023-05-14T05:58:58.938Z,84.3329
2023-05-14T05:59:59.996Z,84.5616
2023-05-14T06:01:00.957Z,84.6929
2023-05-14T06:02:02.028Z,85.1972
2023-05-14T06:03:03.113Z,86.1595
2023-05-14T06:04:04.086Z,86.0018
2023-05-14T06:05:05.138Z,85.7295
2023-05-14T06:06:06.099Z,85.8038
2023-05-14T06:07:07.234Z,85.8843
2023-05-14T06:08:08.190Z,85.6355
2023-05-14T06:09:09.260Z,85.6910
2023-05-14T06:10:10.283Z,85.8254
2023-05-14T06:11:11.299Z,86.1940
2023-05-14T06:12:12.299Z,86.2290
2023-05-14T06:13:13.404Z,86.4035
2023-05-14T06:14:14.541Z,86.3679
2023-05-14T06:15:15.532Z,86.5287
2023-05-14T06:16:16.537Z,86.7041
2023-05-14T06:17:17.560Z,86.5151
2023-05-14T06:18:18.592Z,86.5235
2023-05-14T06:19:19.711Z,86.3360
2023-05-14T06:20:20.816Z,86.3455
2023-05-14T06:21:21.670Z,86.4224
2023-05-14T06:22:22.746Z,86.3974
2023-05-14T06:23:23.758Z,86.8594
2023-05-14T06:24:24.878Z,86.7580
2023-05-14T06:25:25.920Z,86.6187
2023-05-14T06:26:26.969Z,86.3264
2023-05-14T06:27:27.921Z,86.5514
2023-05-14T06:28:29.014Z,86.4472
2023-05-14T06:29:30.073Z,86.6515
2023-05-14T06:30:31.001Z,86.6565
2023-05-14T06:31:32.013Z,86.7168
2023-05-14T06:32:33.045Z,86.7931
2023-05-14T06:33:34.082Z,86.8390
2023-05-14T06:34:35.183Z,86.8419
2023-05-14T06:35:36.153Z,86.8600
2023-05-14T06:36:37.193Z,86.9195
2023-05-14T06:37:38.217Z,86.8425
2023-05-14T06:38:39.273Z,86.9532
2023-05-14T06:39:40.299Z,87.1532
2023-05-14T06:40:41.382Z,87.3257
2023-05-14T06:41:42.354Z,87.2162
2023-05-14T06:42:43.420Z,87.5552
2023-05-14T06:43:44.433Z,87.6281
2023-05-14T06:44:45.542Z,87.7103
2023-05-14T06:45:46.541Z,87.9165
2023-05-14T06:46:47.564Z,87.9406
2023-05-14T06:47:48.619Z,88.1196
2023-05-14T06:48:49.693Z,88.6827
2023-05-14T06:49:50.714Z,88.5071
2023-05-14T06:50:51.771Z,88.7833
2023-05-14T06:51:52.806Z,88.9164
2023-05-14T06:52:53.831Z,88.9916
2023-05-14T06:53:54.838Z,89.1324
2023-05-14T06:54:55.879Z,89.1198
2023-05-14T06:55:56.939Z,89.1973
2023-05-14T06:56:58.009Z,89.3195
2023-05-14T06:57:59.006Z,89.4884
2023-05-14T06:59:00.054Z,89.4341
2023-05-14T07:00:03.262Z,89.5976
2023-05-14T07:01:02.172Z,89.9705
2023-05-14T07:02:03.189Z,90.1622
2023-05-14T07:03:04.237Z,90.2930
2023-05-14T07:04:05.237Z,90.6683
2023-05-14T07:05:06.273Z,90.7469
2023-05-14T07:06:07.323Z,91.0203
2023-05-14T07:07:08.374Z,91.1208
2023-05-14T07:08:09.373Z,91.3168
2023-05-14T07:09:10.416Z,91.5039
2023-05-14T07:10:11.427Z,91.8541
2023-05-14T07:11:12.517Z,92.1634
2023-05-14T07:12:13.516Z,92.3062
2023-05-14T07:13:14.550Z,92.4980
2023-05-14T07:14:15.576Z,92.3161
2023-05-14T07:15:16.640Z,92.2794
2023-05-14T07:16:17.709Z,92.1047
2023-05-14T07:17:18.854Z,92.1314
2023-05-14T07:18:19.712Z,92.0881
2023-05-14T07:19:20.771Z,92.3336
2023-05-14T07:20:22.031Z,92.3625
2023-05-14T07:21:22.905Z,92.3686
2023-05-14T07:22:23.879Z,92.5782
2023-05-14T07:23:24.933Z,92.4328
2023-05-14T07:24:25.947Z,92.2502
2023-05-14T07:25:26.995Z,92.0456
2023-05-14T07:26:28.041Z,91.4145
2023-05-14T07:27:29.078Z,91.7653
2023-05-14T07:28:30.114Z,91.4785
2023-05-14T07:29:31.115Z,90.3511
2023-05-14T07:30:32.210Z,90.0842
2023-05-14T07:31:33.270Z,89.7685
2023-05-14T07:32:34.283Z,89.5302
2023-05-14T07:33:35.278Z,88.4517
2023-05-14T07:34:36.324Z,88.4671
2023-05-14T07:35:37.314Z,87.9744
2023-05-14T07:36:38.410Z,88.6791
2023-05-14T07:37:39.433Z,89.0015
2023-05-14T07:38:40.456Z,88.1862
2023-05-14T07:39:41.488Z,88.8338
2023-05-14T07:40:42.528Z,89.0654
2023-05-14T07:41:43.641Z,89.1918
2023-05-14T07:42:44.626Z,88.9889
2023-05-14T07:43:45.606Z,88.6564
2023-05-14T07:44:46.651Z,88.4352
2023-05-14T07:45:47.695Z,89.1101
2023-05-14T07:46:48.772Z,88.5252
2023-05-14T07:47:49.803Z,86.2420
2023-05-14T07:48:50.818Z,85.4535
2023-05-14T07:49:51.816Z,85.8962
2023-05-14T07:50:52.860Z,85.0862
2023-05-14T07:51:53.877Z,84.7952
2023-05-14T07:52:55.026Z,83.3440
2023-05-14T07:53:55.926Z,83.3463
2023-05-14T07:54:56.977Z,83.3937
2023-05-14T07:55:58.225Z,82.9044
2023-05-14T07:56:59.082Z,83.1505
2023-05-14T07:58:00.158Z,84.0347
2023-05-14T07:59:01.115Z,84.9100
2023-05-14T08:00:02.156Z,84.0725
2023-05-14T08:01:03.179Z,84.0703
2023-05-14T08:02:04.276Z,82.9466
2023-05-14T08:03:05.456Z,83.1455
2023-05-14T08:04:06.384Z,83.6336
2023-05-14T08:05:07.317Z,82.7648
2023-05-14T08:06:08.298Z,82.0469
2023-05-14T08:07:09.411Z,81.5333
2023-05-14T08:08:10.395Z,81.8952
2023-05-14T08:09:11.395Z,83.1374
2023-05-14T08:10:12.489Z,82.1388
2023-05-14T08:11:13.477Z,82.9820
2023-05-14T08:12:14.552Z,83.3769
2023-05-14T08:13:15.576Z,83.3962
2023-05-14T08:14:16.575Z,83.9696
2023-05-14T08:15:17.623Z,84.1552
2023-05-14T08:16:18.660Z,84.4175
2023-05-14T08:17:19.753Z,84.3361
2023-05-14T08:18:20.721Z,84.9827
2023-05-14T08:19:21.797Z,85.4463
2023-05-14T08:20:23.058Z,85.3361
2023-05-14T08:21:23.836Z,84.6920
2023-05-14T08:22:24.899Z,83.5663
2023-05-14T08:23:25.985Z,82.9230
2023-05-14T08:24:26.899Z,83.9493
2023-05-14T08:25:27.933Z,83.5923
2023-05-14T08:26:28.980Z,82.3865
2023-05-14T08:27:30.056Z,82.2943
2023-05-14T08:28:31.119Z,82.8971
2023-05-14T08:29:32.097Z,82.7825
2023-05-14T08:30:33.162Z,82.9045
2023-05-14T08:31:34.155Z,82.5506
2023-05-14T08:32:35.244Z,82.6970
2023-05-14T08:33:36.264Z,82.6484
2023-05-14T08:34:37.297Z,82.8112
2023-05-14T08:35:38.321Z,83.0854
2023-05-14T08:36:39.388Z,83.0599
2023-05-14T08:37:40.383Z,82.7393
2023-05-14T08:38:41.433Z,82.5051
2023-05-14T08:39:42.582Z,82.4420
2023-05-14T08:40:43.497Z,82.3594
2023-05-14T08:41:44.543Z,82.6263
2023-05-14T08:42:45.611Z,82.5973
2023-05-14T08:43:46.616Z,83.2359
2023-05-14T08:44:47.638Z,82.6154
2023-05-14T08:45:48.660Z,82.1419
2023-05-14T08:46:49.677Z,81.6416
2023-05-14T08:47:50.991Z,80.9985
2023-05-14T08:48:51.828Z,80.2487
2023-05-14T08:49:52.885Z,80.3667
2023-05-14T08:50:53.885Z,79.5027
2023-05-14T08:51:54.895Z,80.0977
2023-05-14T08:52:55.885Z,79.3314
2023-05-14T08:53:57.004Z,79.5642
2023-05-14T08:54:58.005Z,78.7745
2023-05-14T08:55:59.064Z,79.1816
2023-05-14T08:57:00.046Z,78.2044
2023-05-14T08:58:01.109Z,78.9288
2023-05-14T08:59:02.266Z,78.0511
2023-05-14T09:00:03.299Z,77.7669
2023-05-14T09:01:04.399Z,78.1369
2023-05-14T09:02:26.259Z,78.5621
2023-05-14T09:03:06.460Z,77.7805
2023-05-14T09:04:07.468Z,76.7434
2023-05-14T09:05:08.571Z,76.6393
2023-05-14T09:06:09.545Z,77.8849
2023-05-14T09:07:10.532Z,77.0651
2023-05-14T09:08:11.571Z,77.9791
2023-05-14T09:09:12.650Z,77.8651
2023-05-14T09:10:13.668Z,77.2659
2023-05-14T09:11:14.755Z,77.4115
2023-05-14T09:12:15.733Z,77.4764
2023-05-14T09:13:16.757Z,78.1436
2023-05-14T09:14:17.753Z,77.4968
2023-05-14T09:15:18.996Z,76.8550
2023-05-14T09:16:20.057Z,76.5509
2023-05-14T09:17:21.052Z,76.2740
2023-05-14T09:18:21.996Z,76.9068
2023-05-14T09:19:23.155Z,76.8962
2023-05-14T09:20:24.286Z,76.6246
2023-05-14T09:21:25.164Z,76.9799
2023-05-14T09:22:26.135Z,77.4097
2023-05-14T09:23:27.289Z,77.4995
2023-05-14T09:24:28.214Z,77.3369
2023-05-14T09:25:29.390Z,77.3131
2023-05-14T09:26:30.343Z,77.7451
2023-05-14T09:27:31.331Z,77.5282
2023-05-14T09:28:32.354Z,77.3041
2023-05-14T09:29:33.443Z,77.0390
2023-05-14T09:30:34.506Z,77.7792
2023-05-14T09:31:35.568Z,77.7807
2023-05-14T09:32:36.512Z,77.4235
2023-05-14T09:33:37.663Z,76.6855
2023-05-14T09:34:38.581Z,78.6810
2023-05-14T09:35:39.713Z,78.8238
2023-05-14T09:36:40.715Z,78.6348
2023-05-14T09:37:41.710Z,78.7434
2023-05-14T09:38:42.714Z,77.9559
2023-05-14T09:39:43.842Z,78.0988
2023-05-14T09:40:44.929Z,78.3634
2023-05-14T09:41:45.917Z,78.2769
2023-05-14T09:42:46.869Z,78.2954
2023-05-14T09:43:48.003Z,78.2322
2023-05-14T09:44:48.973Z,78.8816
2023-05-14T09:45:50.080Z,78.3229
2023-05-14T09:46:51.108Z,77.2813
2023-05-14T09:47:52.181Z,77.2715
2023-05-14T09:48:53.095Z,77.4891
2023-05-14T09:49:54.175Z,78.0398
2023-05-14T09:50:55.214Z,78.1322
2023-05-14T09:51:56.282Z,78.3578
2023-05-14T09:52:57.293Z,78.2190
2023-05-14T09:53:58.279Z,78.1899
2023-05-14T09:54:59.310Z,78.4302
2023-05-14T09:56:00.414Z,79.1615
2023-05-14T09:57:01.413Z,80.4368
2023-05-14T09:58:02.450Z,80.7140
2023-05-14T09:59:03.494Z,81.6743
2023-05-14T10:00:04.527Z,82.1773
2023-05-14T10:01:05.676Z,81.5734
2023-05-14T10:02:06.656Z,81.4123
2023-05-14T10:03:07.701Z,81.3850
2023-05-14T10:04:08.734Z,81.4292
2023-05-14T10:05:09.775Z,82.0293
2023-05-14T10:06:10.794Z,82.5528
2023-05-14T10:07:11.791Z,82.5355
2023-05-14T10:08:12.824Z,82.2366
2023-05-14T10:09:14.056Z,82.3342
2023-05-14T10:10:14.860Z,82.4352
2023-05-14T10:11:16.006Z,81.8596
2023-05-14T10:12:17.072Z,81.8029
2023-05-14T10:13:17.982Z,81.3411
2023-05-14T10:14:19.020Z,80.2095
2023-05-14T10:15:20.029Z,79.3528
2023-05-14T10:16:21.169Z,78.5742
2023-05-14T10:17:22.149Z,79.5490
2023-05-14T10:18:23.174Z,80.3511
2023-05-14T10:19:24.342Z,80.3069
2023-05-14T10:20:25.482Z,81.2681
2023-05-14T10:21:26.359Z,81.3253
2023-05-14T10:22:27.370Z,81.0186
2023-05-14T10:23:28.311Z,80.6364
2023-05-14T10:24:29.353Z,80.8536
2023-05-14T10:25:30.453Z,80.3128
2023-05-14T10:26:31.527Z,80.1767
2023-05-14T10:27:32.510Z,80.7639
2023-05-14T10:28:33.531Z,82.0263
2023-05-14T10:29:34.573Z,81.5825
2023-05-14T10:30:35.593Z,80.8792
2023-05-14T10:31:36.850Z,80.4375
2023-05-14T10:32:37.730Z,80.1061
2023-05-14T10:33:38.745Z,80.6857
2023-05-14T10:34:39.691Z,79.0751
2023-05-14T10:35:40.752Z,78.5815
2023-05-14T10:36:41.789Z,79.1308
2023-05-14T10:37:42.897Z,80.0927
2023-05-14T10:38:43.898Z,80.8465
2023-05-14T10:39:44.872Z,80.3549
2023-05-14T10:40:45.905Z,80.3055
2023-05-14T10:41:46.953Z,80.3859
2023-05-14T10:42:48.031Z,79.5729
2023-05-14T10:43:49.117Z,78.9560
2023-05-14T10:44:50.032Z,78.7803
2023-05-14T10:45:51.084Z,78.6742
2023-05-14T10:46:52.170Z,78.2335
2023-05-14T10:47:53.272Z,79.0299
2023-05-14T10:48:54.294Z,79.3758
2023-05-14T10:49:55.129Z,79.9907
2023-05-14T10:50:56.192Z,81.1501
2023-05-14T10:51:57.236Z,79.2483
2023-05-14T10:52:58.336Z,79.5185
2023-05-14T10:53:59.294Z,79.3271
2023-05-14T10:55:02.879Z,79.6513
2023-05-14T10:56:01.377Z,79.7311
2023-05-14T10:57:02.389Z,79.4109
2023-05-14T10:58:03.456Z,78.7341
2023-05-14T10:59:04.463Z,77.7833
2023-05-14T11:00:05.482Z,77.2808
2023-05-14T11:01:06.553Z,77.0568
2023-05-14T11:02:07.724Z,76.8944
2023-05-14T11:03:08.675Z,76.5327
2023-05-14T11:04:09.675Z,75.1404
2023-05-14T11:05:10.645Z,75.0128
2023-05-14T11:06:11.691Z,75.5296
2023-05-14T11:07:12.690Z,75.4510
2023-05-14T11:08:13.798Z,74.8800
2023-05-14T11:09:14.797Z,73.3547
2023-05-14T11:10:15.797Z,72.5536
2023-05-14T11:11:16.818Z,72.1935
2023-05-14T11:12:17.852Z,71.9766
2023-05-14T11:13:18.981Z,73.3975
2023-05-14T11:14:19.955Z,72.6218
2023-05-14T11:15:20.977Z,71.0313
2023-05-14T11:16:23.734Z,72.5443
2023-05-14T11:17:23.069Z,72.7148
2023-05-14T11:18:24.101Z,72.3179
2023-05-14T11:19:25.180Z,72.3651
2023-05-14T11:20:26.336Z,72.9117
2023-05-14T11:21:27.232Z,73.4713
2023-05-14T11:22:28.190Z,74.6927
2023-05-14T11:23:29.315Z,74.8048
2023-05-14T11:24:30.429Z,74.5788
2023-05-14T11:25:31.388Z,74.9197
2023-05-14T11:26:32.452Z,75.1681
2023-05-14T11:27:33.396Z,74.9461
2023-05-14T11:28:34.660Z,75.5896
2023-05-14T11:29:35.500Z,75.7265
2023-05-14T11:30:36.536Z,75.3356
2023-05-14T11:31:37.595Z,75.4870
2023-05-14T11:32:38.681Z,75.5110
2023-05-14T11:33:39.659Z,75.3385
2023-05-14T11:34:40.726Z,74.7947
2023-05-14T11:35:41.755Z,74.7797
2023-05-14T11:36:42.720Z,74.7846
2023-05-14T11:37:43.759Z,73.6054
2023-05-14T11:38:44.816Z,73.6534
2023-05-14T11:39:45.842Z,74.0478
2023-05-14T11:40:46.897Z,73.4832
2023-05-14T11:41:47.921Z,73.9776
2023-05-14T11:42:48.955Z,73.7221
2023-05-14T11:43:49.959Z,73.7628
2023-05-14T11:44:51.017Z,73.3961
2023-05-14T11:45:52.124Z,72.9127
2023-05-14T11:46:53.136Z,72.8121
2023-05-14T11:47:54.272Z,73.3043
2023-05-14T11:48:55.332Z,73.4131
2023-05-14T11:49:56.330Z,73.1630
2023-05-14T11:50:57.440Z,73.3671
2023-05-14T11:51:58.507Z,72.8974
2023-05-14T11:52:59.477Z,72.6811
2023-05-14T11:54:00.482Z,72.1414
2023-05-14T11:55:01.577Z,71.8760
2023-05-14T11:56:02.598Z,71.8532
2023-05-14T11:57:03.629Z,71.1210
2023-05-14T11:58:04.593Z,71.3596
2023-05-14T11:59:05.708Z,71.3842
2023-05-14T12:00:06.755Z,71.3234
2023-05-14T12:01:07.833Z,71.8264
2023-05-14T12:02:08.841Z,71.5949
2023-05-14T12:03:09.910Z,71.6872
2023-05-14T12:04:10.992Z,71.3314
2023-05-14T12:05:11.859Z,72.0640
2023-05-14T12:06:12.934Z,72.3071
2023-05-14T12:07:14.030Z,73.1548
2023-05-14T12:08:14.958Z,74.1100
2023-05-14T12:09:16.028Z,75.0693
2023-05-14T12:10:17.084Z,74.7061
2023-05-14T12:11:18.152Z,75.1657
2023-05-14T12:12:19.190Z,73.3742
2023-05-14T12:13:20.204Z,73.3219
2023-05-14T12:14:21.228Z,73.5580
2023-05-14T12:15:22.263Z,74.1014
2023-05-14T12:16:23.446Z,75.2549
2023-05-14T12:17:24.519Z,76.0507
2023-05-14T12:18:25.486Z,77.2988